sensor_id;sensor_type;location;lat;lon;timestamp;pressure;altitude;pressure_sealevel;temperature
68952;BMP180;56000;51.146;17.112;2023-07-22T00:00:13;99749.60;;;16.60
68952;BMP180;56000;51.146;17.112;2023-07-22T00:03:07;99753.00;;;16.58
68952;BMP180;56000;51.146;17.112;2023-07-22T00:05:41;99750.00;;;16.50
68952;BMP180;56000;51.146;17.112;2023-07-22T00:08:15;99759.00;;;16.40
68952;BMP180;56000;51.146;17.112;2023-07-22T00:10:48;99759.00;;;16.38
68952;BMP180;56000;51.146;17.112;2023-07-22T00:13:22;99756.40;;;16.30
68952;BMP180;56000;51.146;17.112;2023-07-22T00:15:55;99760.40;;;16.22
68952;BMP180;56000;51.146;17.112;2023-07-22T00:18:29;99758.60;;;16.20
68952;BMP180;56000;51.146;17.112;2023-07-22T00:21:02;99766.40;;;16.10
68952;BMP180;56000;51.146;17.112;2023-07-22T00:23:36;99758.00;;;16.10
68952;BMP180;56000;51.146;17.112;2023-07-22T00:26:09;99753.60;;;16.00
68952;BMP180;56000;51.146;17.112;2023-07-22T00:28:42;99752.60;;;16.00
68952;BMP180;56000;51.146;17.112;2023-07-22T00:31:16;99747.20;;;16.00
68952;BMP180;56000;51.146;17.112;2023-07-22T00:33:49;99766.00;;;15.98
68952;BMP180;56000;51.146;17.112;2023-07-22T00:36:22;99775.20;;;15.94
68952;BMP180;56000;51.146;17.112;2023-07-22T00:38:57;99773.40;;;15.90
68952;BMP180;56000;51.146;17.112;2023-07-22T00:41:30;99778.60;;;15.90
68952;BMP180;56000;51.146;17.112;2023-07-22T00:44:04;99774.40;;;15.86
68952;BMP180;56000;51.146;17.112;2023-07-22T00:46:37;99777.60;;;15.80
68952;BMP180;56000;51.146;17.112;2023-07-22T00:49:11;99773.80;;;15.80
68952;BMP180;56000;51.146;17.112;2023-07-22T00:51:44;99782.40;;;15.76
68952;BMP180;56000;51.146;17.112;2023-07-22T00:54:18;99776.60;;;15.70
68952;BMP180;56000;51.146;17.112;2023-07-22T00:56:51;99779.80;;;15.70
68952;BMP180;56000;51.146;17.112;2023-07-22T00:59:25;99781.20;;;15.66
68952;BMP180;56000;51.146;17.112;2023-07-22T01:01:59;99779.80;;;15.60
68952;BMP180;56000;51.146;17.112;2023-07-22T01:04:34;99779.80;;;15.60
68952;BMP180;56000;51.146;17.112;2023-07-22T01:07:08;99777.40;;;15.60
68952;BMP180;56000;51.146;17.112;2023-07-22T01:09:44;99770.60;;;15.60
68952;BMP180;56000;51.146;17.112;2023-07-22T01:12:17;99773.40;;;15.60
68952;BMP180;56000;51.146;17.112;2023-07-22T01:14:51;99771.80;;;15.60
68952;BMP180;56000;51.146;17.112;2023-07-22T01:17:25;99769.00;;;15.60
68952;BMP180;56000;51.146;17.112;2023-07-22T01:20:01;99763.20;;;15.60
68952;BMP180;56000;51.146;17.112;2023-07-22T01:22:35;99772.80;;;15.60
68952;BMP180;56000;51.146;17.112;2023-07-22T01:25:10;99780.40;;;15.60
68952;BMP180;56000;51.146;17.112;2023-07-22T01:27:45;99777.00;;;15.56
68952;BMP180;56000;51.146;17.112;2023-07-22T01:30:18;99778.60;;;15.50
68952;BMP180;56000;51.146;17.112;2023-07-22T01:32:51;99778.00;;;15.50
68952;BMP180;56000;51.146;17.112;2023-07-22T01:35:24;99778.60;;;15.42
68952;BMP180;56000;51.146;17.112;2023-07-22T01:37:58;99779.60;;;15.40
68952;BMP180;56000;51.146;17.112;2023-07-22T01:40:32;99778.20;;;15.40
68952;BMP180;56000;51.146;17.112;2023-07-22T01:43:05;99778.80;;;15.40
68952;BMP180;56000;51.146;17.112;2023-07-22T01:45:38;99784.60;;;15.40
68952;BMP180;56000;51.146;17.112;2023-07-22T01:48:11;99793.60;;;15.36
68952;BMP180;56000;51.146;17.112;2023-07-22T01:50:45;99797.20;;;15.30
68952;BMP180;56000;51.146;17.112;2023-07-22T01:53:19;99807.40;;;15.30
68952;BMP180;56000;51.146;17.112;2023-07-22T01:55:52;99813.00;;;15.30
68952;BMP180;56000;51.146;17.112;2023-07-22T01:58:26;99812.60;;;15.30
68952;BMP180;56000;51.146;17.112;2023-07-22T02:00:59;99816.40;;;15.30
68952;BMP180;56000;51.146;17.112;2023-07-22T02:03:32;99814.60;;;15.30
68952;BMP180;56000;51.146;17.112;2023-07-22T02:06:06;99809.00;;;15.32
68952;BMP180;56000;51.146;17.112;2023-07-22T02:08:39;99813.20;;;15.30
68952;BMP180;56000;51.146;17.112;2023-07-22T02:11:13;99812.20;;;15.30
68952;BMP180;56000;51.146;17.112;2023-07-22T02:13:46;99818.60;;;15.32
68952;BMP180;56000;51.146;17.112;2023-07-22T02:16:19;99821.20;;;15.30
68952;BMP180;56000;51.146;17.112;2023-07-22T02:18:53;99823.20;;;15.32
68952;BMP180;56000;51.146;17.112;2023-07-22T02:21:26;99828.40;;;15.38
68952;BMP180;56000;51.146;17.112;2023-07-22T02:23:59;99829.80;;;15.40
68952;BMP180;56000;51.146;17.112;2023-07-22T02:26:33;99827.20;;;15.40
68952;BMP180;56000;51.146;17.112;2023-07-22T02:29:06;99818.40;;;15.40
68952;BMP180;56000;51.146;17.112;2023-07-22T02:31:40;99822.00;;;15.40
68952;BMP180;56000;51.146;17.112;2023-07-22T02:34:14;99825.20;;;15.40
68952;BMP180;56000;51.146;17.112;2023-07-22T02:36:48;99830.80;;;15.40
68952;BMP180;56000;51.146;17.112;2023-07-22T02:39:21;99830.20;;;15.40
68952;BMP180;56000;51.146;17.112;2023-07-22T02:41:54;99829.20;;;15.40
68952;BMP180;56000;51.146;17.112;2023-07-22T02:44:27;99828.20;;;15.40
68952;BMP180;56000;51.146;17.112;2023-07-22T02:47:00;99828.60;;;15.46
68952;BMP180;56000;51.146;17.112;2023-07-22T02:49:34;99827.80;;;15.50
68952;BMP180;56000;51.146;17.112;2023-07-22T02:52:08;99834.00;;;15.50
68952;BMP180;56000;51.146;17.112;2023-07-22T02:55:02;99834.80;;;15.50
68952;BMP180;56000;51.146;17.112;2023-07-22T02:57:37;99834.80;;;15.58
68952;BMP180;56000;51.146;17.112;2023-07-22T03:00:12;99840.80;;;15.60
68952;BMP180;56000;51.146;17.112;2023-07-22T03:02:49;99839.20;;;15.60
68952;BMP180;56000;51.146;17.112;2023-07-22T03:05:23;99843.20;;;15.60
68952;BMP180;56000;51.146;17.112;2023-07-22T03:07:58;99845.20;;;15.60
68952;BMP180;56000;51.146;17.112;2023-07-22T03:10:31;99844.80;;;15.60
68952;BMP180;56000;51.146;17.112;2023-07-22T03:13:04;99848.40;;;15.60
68952;BMP180;56000;51.146;17.112;2023-07-22T03:15:39;99848.40;;;15.60
68952;BMP180;56000;51.146;17.112;2023-07-22T03:18:13;99850.20;;;15.60
68952;BMP180;56000;51.146;17.112;2023-07-22T03:20:46;99853.60;;;15.60
68952;BMP180;56000;51.146;17.112;2023-07-22T03:23:19;99851.20;;;15.60
68952;BMP180;56000;51.146;17.112;2023-07-22T03:25:52;99853.20;;;15.70
68952;BMP180;56000;51.146;17.112;2023-07-22T03:28:26;99855.20;;;15.70
68952;BMP180;56000;51.146;17.112;2023-07-22T03:30:59;99858.60;;;15.70
68952;BMP180;56000;51.146;17.112;2023-07-22T03:33:32;99858.60;;;15.76
68952;BMP180;56000;51.146;17.112;2023-07-22T03:36:06;99862.60;;;15.80
68952;BMP180;56000;51.146;17.112;2023-07-22T03:38:39;99869.80;;;15.80
68952;BMP180;56000;51.146;17.112;2023-07-22T03:41:12;99869.40;;;15.80
68952;BMP180;56000;51.146;17.112;2023-07-22T03:43:45;99870.40;;;15.80
68952;BMP180;56000;51.146;17.112;2023-07-22T03:46:19;99872.00;;;15.82
68952;BMP180;56000;51.146;17.112;2023-07-22T03:48:52;99863.60;;;15.90
68952;BMP180;56000;51.146;17.112;2023-07-22T03:51:26;99865.60;;;15.90
68952;BMP180;56000;51.146;17.112;2023-07-22T03:54:00;99868.20;;;15.98
68952;BMP180;56000;51.146;17.112;2023-07-22T03:56:33;99870.40;;;16.00
68952;BMP180;56000;51.146;17.112;2023-07-22T03:59:06;99871.40;;;16.00
68952;BMP180;56000;51.146;17.112;2023-07-22T04:01:40;99872.60;;;16.00
68952;BMP180;56000;51.146;17.112;2023-07-22T04:04:13;99878.40;;;16.00
68952;BMP180;56000;51.146;17.112;2023-07-22T04:06:46;99878.40;;;16.00
68952;BMP180;56000;51.146;17.112;2023-07-22T04:09:19;99883.60;;;16.00
68952;BMP180;56000;51.146;17.112;2023-07-22T04:11:53;99882.00;;;16.00
68952;BMP180;56000;51.146;17.112;2023-07-22T04:14:26;99885.80;;;16.00
68952;BMP180;56000;51.146;17.112;2023-07-22T04:17:03;99890.40;;;16.00
68952;BMP180;56000;51.146;17.112;2023-07-22T04:19:37;99891.60;;;16.04
68952;BMP180;56000;51.146;17.112;2023-07-22T04:22:10;99888.00;;;16.10
68952;BMP180;56000;51.146;17.112;2023-07-22T04:24:43;99889.20;;;16.10
68952;BMP180;56000;51.146;17.112;2023-07-22T04:27:17;99889.00;;;16.20
68952;BMP180;56000;51.146;17.112;2023-07-22T04:29:51;99885.60;;;16.30
68952;BMP180;56000;51.146;17.112;2023-07-22T04:32:25;99887.20;;;16.36
68952;BMP180;56000;51.146;17.112;2023-07-22T04:34:58;99894.20;;;16.78
68952;BMP180;56000;51.146;17.112;2023-07-22T04:37:31;99894.80;;;17.00
68952;BMP180;56000;51.146;17.112;2023-07-22T04:40:06;99891.40;;;17.00
68952;BMP180;56000;51.146;17.112;2023-07-22T04:42:45;99896.00;;;17.00
68952;BMP180;56000;51.146;17.112;2023-07-22T04:45:19;99893.40;;;17.10
68952;BMP180;56000;51.146;17.112;2023-07-22T04:47:52;99899.00;;;17.10
68952;BMP180;56000;51.146;17.112;2023-07-22T04:50:25;99894.80;;;17.12
68952;BMP180;56000;51.146;17.112;2023-07-22T04:52:59;99898.20;;;17.20
68952;BMP180;56000;51.146;17.112;2023-07-22T04:55:33;99904.00;;;17.20
68952;BMP180;56000;51.146;17.112;2023-07-22T04:58:06;99904.20;;;17.28
68952;BMP180;56000;51.146;17.112;2023-07-22T05:00:40;99909.80;;;17.42
68952;BMP180;56000;51.146;17.112;2023-07-22T05:03:14;99907.80;;;17.86
68952;BMP180;56000;51.146;17.112;2023-07-22T05:05:49;99907.00;;;18.30
68952;BMP180;56000;51.146;17.112;2023-07-22T05:08:22;99902.60;;;18.30
68952;BMP180;56000;51.146;17.112;2023-07-22T05:10:55;99908.80;;;18.20
68952;BMP180;56000;51.146;17.112;2023-07-22T05:13:28;99912.20;;;18.10
68952;BMP180;56000;51.146;17.112;2023-07-22T05:16:02;99914.80;;;18.10
68952;BMP180;56000;51.146;17.112;2023-07-22T05:18:35;99920.40;;;18.00
68952;BMP180;56000;51.146;17.112;2023-07-22T05:21:09;99921.60;;;18.00
68952;BMP180;56000;51.146;17.112;2023-07-22T05:23:43;99923.60;;;18.00
68952;BMP180;56000;51.146;17.112;2023-07-22T05:26:16;99926.00;;;18.08
68952;BMP180;56000;51.146;17.112;2023-07-22T05:28:50;99928.00;;;18.10
68952;BMP180;56000;51.146;17.112;2023-07-22T05:31:23;99926.80;;;18.18
68952;BMP180;56000;51.146;17.112;2023-07-22T05:33:56;99933.20;;;18.20
68952;BMP180;56000;51.146;17.112;2023-07-22T05:36:29;99932.20;;;18.20
68952;BMP180;56000;51.146;17.112;2023-07-22T05:39:03;99934.00;;;18.20
68952;BMP180;56000;51.146;17.112;2023-07-22T05:41:37;99929.40;;;18.20
68952;BMP180;56000;51.146;17.112;2023-07-22T05:44:12;99933.20;;;18.30
68952;BMP180;56000;51.146;17.112;2023-07-22T05:46:45;99934.40;;;18.40
68952;BMP180;56000;51.146;17.112;2023-07-22T05:49:18;99935.80;;;19.26
68952;BMP180;56000;51.146;17.112;2023-07-22T05:51:52;99937.80;;;19.80
68952;BMP180;56000;51.146;17.112;2023-07-22T05:54:26;99938.60;;;19.90
68952;BMP180;56000;51.146;17.112;2023-07-22T05:56:59;99939.20;;;19.70
68952;BMP180;56000;51.146;17.112;2023-07-22T05:59:33;99933.00;;;19.60
68952;BMP180;56000;51.146;17.112;2023-07-22T06:02:13;99943.80;;;19.46
68952;BMP180;56000;51.146;17.112;2023-07-22T06:04:47;99935.40;;;19.40
68952;BMP180;56000;51.146;17.112;2023-07-22T06:07:20;99934.60;;;19.30
68952;BMP180;56000;51.146;17.112;2023-07-22T06:09:53;99949.00;;;19.20
68952;BMP180;56000;51.146;17.112;2023-07-22T06:12:26;99947.40;;;19.20
68952;BMP180;56000;51.146;17.112;2023-07-22T06:15:00;99946.00;;;19.20
68952;BMP180;56000;51.146;17.112;2023-07-22T06:17:34;99950.60;;;19.20
68952;BMP180;56000;51.146;17.112;2023-07-22T06:20:10;99951.80;;;19.30
68952;BMP180;56000;51.146;17.112;2023-07-22T06:22:44;99951.80;;;19.40
68952;BMP180;56000;51.146;17.112;2023-07-22T06:25:17;99954.80;;;19.40
68952;BMP180;56000;51.146;17.112;2023-07-22T06:27:50;99959.60;;;19.50
68952;BMP180;56000;51.146;17.112;2023-07-22T06:30:26;99962.60;;;19.50
68952;BMP180;56000;51.146;17.112;2023-07-22T06:32:59;99970.80;;;19.50
68952;BMP180;56000;51.146;17.112;2023-07-22T06:35:32;99969.00;;;19.60
68952;BMP180;56000;51.146;17.112;2023-07-22T06:38:06;99968.40;;;19.70
68952;BMP180;56000;51.146;17.112;2023-07-22T06:40:39;99972.80;;;19.80
68952;BMP180;56000;51.146;17.112;2023-07-22T06:43:12;99971.60;;;19.80
68952;BMP180;56000;51.146;17.112;2023-07-22T06:45:45;99978.20;;;19.86
68952;BMP180;56000;51.146;17.112;2023-07-22T06:48:18;99977.00;;;19.90
68952;BMP180;56000;51.146;17.112;2023-07-22T06:50:52;99978.80;;;20.00
68952;BMP180;56000;51.146;17.112;2023-07-22T06:53:25;99982.60;;;20.20
68952;BMP180;56000;51.146;17.112;2023-07-22T06:56:00;99979.60;;;20.30
68952;BMP180;56000;51.146;17.112;2023-07-22T06:58:33;99987.40;;;20.60
68952;BMP180;56000;51.146;17.112;2023-07-22T07:01:06;99989.60;;;20.66
68952;BMP180;56000;51.146;17.112;2023-07-22T07:03:40;99994.60;;;20.60
68952;BMP180;56000;51.146;17.112;2023-07-22T07:06:13;99992.60;;;20.50
68952;BMP180;56000;51.146;17.112;2023-07-22T07:08:46;100002.60;;;20.40
68952;BMP180;56000;51.146;17.112;2023-07-22T07:11:20;100000.40;;;20.40
68952;BMP180;56000;51.146;17.112;2023-07-22T07:13:53;100004.40;;;20.48
68952;BMP180;56000;51.146;17.112;2023-07-22T07:16:29;100013.40;;;20.40
68952;BMP180;56000;51.146;17.112;2023-07-22T07:19:04;100013.00;;;20.40
68952;BMP180;56000;51.146;17.112;2023-07-22T07:21:40;100016.00;;;20.30
68952;BMP180;56000;51.146;17.112;2023-07-22T07:24:13;100024.40;;;20.36
68952;BMP180;56000;51.146;17.112;2023-07-22T07:26:46;100021.20;;;20.30
68952;BMP180;56000;51.146;17.112;2023-07-22T07:29:20;100024.40;;;20.20
68952;BMP180;56000;51.146;17.112;2023-07-22T07:32:13;100026.00;;;20.20
68952;BMP180;56000;51.146;17.112;2023-07-22T07:34:46;100022.00;;;20.30
68952;BMP180;56000;51.146;17.112;2023-07-22T07:37:20;100021.40;;;20.50
68952;BMP180;56000;51.146;17.112;2023-07-22T07:39:55;100028.40;;;20.70
68952;BMP180;56000;51.146;17.112;2023-07-22T07:42:32;100027.40;;;20.90
68952;BMP180;56000;51.146;17.112;2023-07-22T07:45:07;100029.40;;;21.00
68952;BMP180;56000;51.146;17.112;2023-07-22T07:47:40;100037.60;;;20.98
68952;BMP180;56000;51.146;17.112;2023-07-22T07:50:13;100025.40;;;20.90
68952;BMP180;56000;51.146;17.112;2023-07-22T07:52:47;100024.60;;;20.90
68952;BMP180;56000;51.146;17.112;2023-07-22T07:55:20;100028.40;;;21.00
68952;BMP180;56000;51.146;17.112;2023-07-22T07:57:53;100026.80;;;21.20
68952;BMP180;56000;51.146;17.112;2023-07-22T08:00:26;100027.20;;;21.30
68952;BMP180;56000;51.146;17.112;2023-07-22T08:02:59;100031.00;;;21.52
68952;BMP180;56000;51.146;17.112;2023-07-22T08:05:33;100035.60;;;21.80
68952;BMP180;56000;51.146;17.112;2023-07-22T08:08:06;100040.20;;;22.00
68952;BMP180;56000;51.146;17.112;2023-07-22T08:10:39;100042.40;;;21.96
68952;BMP180;56000;51.146;17.112;2023-07-22T08:13:14;100047.60;;;21.80
68952;BMP180;56000;51.146;17.112;2023-07-22T08:15:47;100055.40;;;21.80
68952;BMP180;56000;51.146;17.112;2023-07-22T08:18:21;100048.60;;;21.88
68952;BMP180;56000;51.146;17.112;2023-07-22T08:20:54;100056.40;;;22.10
68952;BMP180;56000;51.146;17.112;2023-07-22T08:23:28;100056.40;;;22.20
68952;BMP180;56000;51.146;17.112;2023-07-22T08:26:01;100060.20;;;22.10
68952;BMP180;56000;51.146;17.112;2023-07-22T08:28:35;100059.20;;;22.20
68952;BMP180;56000;51.146;17.112;2023-07-22T08:31:08;100058.40;;;22.20
68952;BMP180;56000;51.146;17.112;2023-07-22T08:33:41;100064.80;;;22.10
68952;BMP180;56000;51.146;17.112;2023-07-22T08:36:14;100062.60;;;22.02
68952;BMP180;56000;51.146;17.112;2023-07-22T08:38:47;100063.60;;;22.20
68952;BMP180;56000;51.146;17.112;2023-07-22T08:41:21;100062.20;;;22.20
68952;BMP180;56000;51.146;17.112;2023-07-22T08:43:58;100063.60;;;22.20
68952;BMP180;56000;51.146;17.112;2023-07-22T08:46:34;100066.20;;;22.38
68952;BMP180;56000;51.146;17.112;2023-07-22T08:49:09;100067.00;;;22.48
68952;BMP180;56000;51.146;17.112;2023-07-22T08:51:43;100062.80;;;22.64
68952;BMP180;56000;51.146;17.112;2023-07-22T08:54:17;100071.20;;;22.90
68952;BMP180;56000;51.146;17.112;2023-07-22T08:56:50;100073.20;;;23.00
68952;BMP180;56000;51.146;17.112;2023-07-22T08:59:25;100059.80;;;23.10
68952;BMP180;56000;51.146;17.112;2023-07-22T09:01:58;100075.80;;;23.20
68952;BMP180;56000;51.146;17.112;2023-07-22T09:04:32;100071.20;;;23.40
68952;BMP180;56000;51.146;17.112;2023-07-22T09:07:07;100072.60;;;23.80
68952;BMP180;56000;51.146;17.112;2023-07-22T09:09:41;100069.80;;;24.34
68952;BMP180;56000;51.146;17.112;2023-07-22T09:12:15;100063.40;;;24.54
68952;BMP180;56000;51.146;17.112;2023-07-22T09:14:51;100068.60;;;24.34
68952;BMP180;56000;51.146;17.112;2023-07-22T09:17:25;100068.40;;;24.20
68952;BMP180;56000;51.146;17.112;2023-07-22T09:20:00;100063.40;;;24.44
68952;BMP180;56000;51.146;17.112;2023-07-22T09:22:35;100069.20;;;24.80
68952;BMP180;56000;51.146;17.112;2023-07-22T09:25:18;100070.40;;;25.04
68952;BMP180;56000;51.146;17.112;2023-07-22T09:27:53;100081.20;;;25.10
68952;BMP180;56000;51.146;17.112;2023-07-22T09:30:29;100081.00;;;25.00
68952;BMP180;56000;51.146;17.112;2023-07-22T09:33:04;100073.80;;;24.88
68952;BMP180;56000;51.146;17.112;2023-07-22T09:35:48;100079.60;;;24.70
68952;BMP180;56000;51.146;17.112;2023-07-22T09:38:26;100080.20;;;24.34
68952;BMP180;56000;51.146;17.112;2023-07-22T09:40:59;100078.00;;;24.10
68952;BMP180;56000;51.146;17.112;2023-07-22T09:43:35;100086.40;;;24.00
68952;BMP180;56000;51.146;17.112;2023-07-22T09:46:12;100080.40;;;24.44
68952;BMP180;56000;51.146;17.112;2023-07-22T09:48:57;100076.00;;;25.10
68952;BMP180;56000;51.146;17.112;2023-07-22T09:51:34;100076.60;;;25.30
68952;BMP180;56000;51.146;17.112;2023-07-22T09:54:24;100084.40;;;25.50
68952;BMP180;56000;51.146;17.112;2023-07-22T09:57:01;100082.20;;;25.34
68952;BMP180;56000;51.146;17.112;2023-07-22T09:59:37;100075.20;;;25.90
68952;BMP180;56000;51.146;17.112;2023-07-22T10:02:12;100076.80;;;26.48
68952;BMP180;56000;51.146;17.112;2023-07-22T10:04:47;100080.00;;;26.52
68952;BMP180;56000;51.146;17.112;2023-07-22T10:07:22;100090.20;;;26.70
68952;BMP180;56000;51.146;17.112;2023-07-22T10:09:58;100092.60;;;26.60
68952;BMP180;56000;51.146;17.112;2023-07-22T10:12:32;100094.40;;;27.00
68952;BMP180;56000;51.146;17.112;2023-07-22T10:15:07;100090.60;;;27.00
68952;BMP180;56000;51.146;17.112;2023-07-22T10:17:41;100086.40;;;26.46
68952;BMP180;56000;51.146;17.112;2023-07-22T10:20:15;100084.80;;;26.62
68952;BMP180;56000;51.146;17.112;2023-07-22T10:22:51;100081.80;;;27.22
68952;BMP180;56000;51.146;17.112;2023-07-22T10:25:25;100083.60;;;27.78
68952;BMP180;56000;51.146;17.112;2023-07-22T10:27:58;100090.00;;;27.22
68952;BMP180;56000;51.146;17.112;2023-07-22T10:30:32;100084.40;;;27.06
68952;BMP180;56000;51.146;17.112;2023-07-22T10:33:06;100094.20;;;27.00
68952;BMP180;56000;51.146;17.112;2023-07-22T10:36:00;100095.40;;;26.60
68952;BMP180;56000;51.146;17.112;2023-07-22T10:38:35;100090.60;;;26.30
68952;BMP180;56000;51.146;17.112;2023-07-22T10:41:16;100088.80;;;25.86
68952;BMP180;56000;51.146;17.112;2023-07-22T10:43:59;100093.80;;;25.40
68952;BMP180;56000;51.146;17.112;2023-07-22T10:46:37;100086.00;;;25.24
68952;BMP180;56000;51.146;17.112;2023-07-22T10:49:16;100088.60;;;26.30
68952;BMP180;56000;51.146;17.112;2023-07-22T10:51:52;100101.20;;;26.08
68952;BMP180;56000;51.146;17.112;2023-07-22T10:54:36;100100.40;;;25.56
68952;BMP180;56000;51.146;17.112;2023-07-22T10:57:25;100097.80;;;25.00
68952;BMP180;56000;51.146;17.112;2023-07-22T11:00:02;100094.80;;;25.58
68952;BMP180;56000;51.146;17.112;2023-07-22T11:02:36;100096.00;;;27.18
68952;BMP180;56000;51.146;17.112;2023-07-22T11:05:12;100095.20;;;28.68
68952;BMP180;56000;51.146;17.112;2023-07-22T11:07:49;100089.20;;;28.80
68952;BMP180;56000;51.146;17.112;2023-07-22T11:10:23;100097.40;;;28.24
68952;BMP180;56000;51.146;17.112;2023-07-22T11:13:01;100104.20;;;27.28
68952;BMP180;56000;51.146;17.112;2023-07-22T11:15:35;100106.40;;;26.38
68952;BMP180;56000;51.146;17.112;2023-07-22T11:18:09;100105.00;;;25.60
68952;BMP180;56000;51.146;17.112;2023-07-22T11:20:42;100107.60;;;25.10
68952;BMP180;56000;51.146;17.112;2023-07-22T11:23:16;100108.00;;;24.70
68952;BMP180;56000;51.146;17.112;2023-07-22T11:25:50;100107.00;;;24.50
68952;BMP180;56000;51.146;17.112;2023-07-22T11:28:23;100104.60;;;24.50
68952;BMP180;56000;51.146;17.112;2023-07-22T11:30:57;100098.60;;;24.64
68952;BMP180;56000;51.146;17.112;2023-07-22T11:33:40;100099.80;;;25.78
68952;BMP180;56000;51.146;17.112;2023-07-22T11:36:15;100095.40;;;26.62
68952;BMP180;56000;51.146;17.112;2023-07-22T11:38:48;100096.20;;;27.10
68952;BMP180;56000;51.146;17.112;2023-07-22T11:41:22;100097.40;;;27.04
68952;BMP180;56000;51.146;17.112;2023-07-22T11:43:57;100096.20;;;26.60
68952;BMP180;56000;51.146;17.112;2023-07-22T11:46:31;100099.40;;;26.20
68952;BMP180;56000;51.146;17.112;2023-07-22T11:49:05;100096.80;;;25.80
68952;BMP180;56000;51.146;17.112;2023-07-22T11:51:41;100093.00;;;25.42
68952;BMP180;56000;51.146;17.112;2023-07-22T11:54:15;100100.80;;;25.20
68952;BMP180;56000;51.146;17.112;2023-07-22T11:56:49;100101.40;;;25.46
68952;BMP180;56000;51.146;17.112;2023-07-22T11:59:35;100108.00;;;25.90
68952;BMP180;56000;51.146;17.112;2023-07-22T12:02:14;100097.20;;;26.30
68952;BMP180;56000;51.146;17.112;2023-07-22T12:04:55;100086.20;;;27.52
68952;BMP180;56000;51.146;17.112;2023-07-22T12:07:30;100097.00;;;29.62
68952;BMP180;56000;51.146;17.112;2023-07-22T12:10:06;100087.40;;;31.18
68952;BMP180;56000;51.146;17.112;2023-07-22T12:12:44;100089.20;;;32.66
68952;BMP180;56000;51.146;17.112;2023-07-22T12:15:22;100095.60;;;33.44
68952;BMP180;56000;51.146;17.112;2023-07-22T12:17:59;100095.80;;;31.92
68952;BMP180;56000;51.146;17.112;2023-07-22T12:20:35;100091.20;;;30.52
68952;BMP180;56000;51.146;17.112;2023-07-22T12:23:08;100091.60;;;29.54
68952;BMP180;56000;51.146;17.112;2023-07-22T12:25:41;100080.20;;;29.02
68952;BMP180;56000;51.146;17.112;2023-07-22T12:28:15;100083.80;;;29.46
68952;BMP180;56000;51.146;17.112;2023-07-22T12:30:48;100073.80;;;29.56
68952;BMP180;56000;51.146;17.112;2023-07-22T12:33:21;100074.80;;;31.54
68952;BMP180;56000;51.146;17.112;2023-07-22T12:35:56;100077.20;;;32.92
68952;BMP180;56000;51.146;17.112;2023-07-22T12:38:29;100076.60;;;32.72
68952;BMP180;56000;51.146;17.112;2023-07-22T12:41:03;100085.40;;;31.32
68952;BMP180;56000;51.146;17.112;2023-07-22T12:43:39;100084.20;;;29.94
68952;BMP180;56000;51.146;17.112;2023-07-22T12:46:13;100085.40;;;28.84
68952;BMP180;56000;51.146;17.112;2023-07-22T12:48:46;100083.00;;;27.92
68952;BMP180;56000;51.146;17.112;2023-07-22T12:51:19;100084.40;;;27.82
68952;BMP180;56000;51.146;17.112;2023-07-22T12:53:52;100087.00;;;28.40
68952;BMP180;56000;51.146;17.112;2023-07-22T12:56:26;100084.80;;;28.08
68952;BMP180;56000;51.146;17.112;2023-07-22T12:58:59;100070.40;;;27.78
68952;BMP180;56000;51.146;17.112;2023-07-22T13:01:33;100070.20;;;28.30
68952;BMP180;56000;51.146;17.112;2023-07-22T13:04:06;100070.20;;;28.62
68952;BMP180;56000;51.146;17.112;2023-07-22T13:06:39;100074.60;;;30.06
68952;BMP180;56000;51.146;17.112;2023-07-22T13:09:13;100067.80;;;30.30
68952;BMP180;56000;51.146;17.112;2023-07-22T13:11:46;100077.40;;;30.38
68952;BMP180;56000;51.146;17.112;2023-07-22T13:14:19;100075.80;;;30.34
68952;BMP180;56000;51.146;17.112;2023-07-22T13:16:53;100082.60;;;30.16
68952;BMP180;56000;51.146;17.112;2023-07-22T13:19:28;100074.80;;;30.50
68952;BMP180;56000;51.146;17.112;2023-07-22T13:22:01;100073.40;;;30.88
68952;BMP180;56000;51.146;17.112;2023-07-22T13:24:34;100068.00;;;32.76
68952;BMP180;56000;51.146;17.112;2023-07-22T13:27:08;100066.80;;;34.20
68952;BMP180;56000;51.146;17.112;2023-07-22T13:29:41;100070.00;;;33.74
68952;BMP180;56000;51.146;17.112;2023-07-22T13:32:14;100073.00;;;32.34
68952;BMP180;56000;51.146;17.112;2023-07-22T13:34:47;100060.80;;;32.76
68952;BMP180;56000;51.146;17.112;2023-07-22T13:37:20;100066.40;;;33.92
68952;BMP180;56000;51.146;17.112;2023-07-22T13:39:54;100060.40;;;33.42
68952;BMP180;56000;51.146;17.112;2023-07-22T13:42:29;100057.20;;;33.16
68952;BMP180;56000;51.146;17.112;2023-07-22T13:45:02;100058.40;;;34.66
68952;BMP180;56000;51.146;17.112;2023-07-22T13:47:36;100072.80;;;36.40
68952;BMP180;56000;51.146;17.112;2023-07-22T13:50:10;100064.00;;;35.84
68952;BMP180;56000;51.146;17.112;2023-07-22T13:52:44;100065.40;;;34.36
68952;BMP180;56000;51.146;17.112;2023-07-22T13:55:17;100068.80;;;34.36
68952;BMP180;56000;51.146;17.112;2023-07-22T13:57:50;100073.40;;;34.60
68952;BMP180;56000;51.146;17.112;2023-07-22T14:00:23;100075.20;;;34.72
68952;BMP180;56000;51.146;17.112;2023-07-22T14:02:57;100069.00;;;33.56
68952;BMP180;56000;51.146;17.112;2023-07-22T14:05:31;100069.20;;;32.50
68952;BMP180;56000;51.146;17.112;2023-07-22T14:08:05;100070.40;;;32.56
68952;BMP180;56000;51.146;17.112;2023-07-22T14:10:38;100076.80;;;32.98
68952;BMP180;56000;51.146;17.112;2023-07-22T14:13:12;100078.80;;;32.16
68952;BMP180;56000;51.146;17.112;2023-07-22T14:15:45;100078.60;;;31.24
68952;BMP180;56000;51.146;17.112;2023-07-22T14:18:19;100080.60;;;30.42
68952;BMP180;56000;51.146;17.112;2023-07-22T14:20:52;100074.80;;;29.78
68952;BMP180;56000;51.146;17.112;2023-07-22T14:23:25;100075.00;;;30.08
68952;BMP180;56000;51.146;17.112;2023-07-22T14:25:59;100063.60;;;30.72
68952;BMP180;56000;51.146;17.112;2023-07-22T14:28:32;100060.20;;;32.04
68952;BMP180;56000;51.146;17.112;2023-07-22T14:31:06;100066.80;;;32.58